»·PEaware :: N802TZ KLGB-KSBA

N802TZ :: KLGB-KSBA

FLIGHT INFORMATION

Flight Status: Arrived
Operator: Privately registered:
United States
More flights under this callsign
Pilot: Vinicius U. (17612)
Aircraft: PIPER PA-46-310/350P MALIBU MIRAGE
(PA46)
More flights by this aircraft type
Origin: KLGB Long Beach
United States
Destination: KSBA Santa Barbara Mun
United States
More flights between these airports :: More routes between these airports
Route: +SLI V23 LAX V299 VTU VTU282R KWANG
File this flight plan on PilotEdge
Remarks:
Altitude:
(Current/Filed)
10,500ft
Speed:
(Current/Filed)
195kts
Departed: 04-Jan-18 11:06 AM
Arrived: 04-Jan-18 11:54 AM
Distance/Time
Traveled:
91nm/0:47
Distance/Time
To Go:
Arrived

Flight Plot

Page will automatically refresh every two minutes.


Map Options




Map Legend


Flown Route
Filed Route
Departure Airport
Arrival Airport
Navaid (VOR, NDB)
Fix

Horizontal Profiles

Position Reports

Time Latitude Longitude Heading Altitude Ground
Speed
04-Jan-18 10:31 33.812775 -118.162924 180 64ft 0kts
04-Jan-18 10:32 33.812775 -118.162924 180 64ft 0kts
04-Jan-18 10:33 33.812775 -118.162924 180 64ft 0kts
04-Jan-18 10:34 33.812775 -118.162924 180 64ft 0kts
04-Jan-18 10:35 33.812775 -118.162924 180 64ft 0kts
04-Jan-18 10:36 33.812775 -118.162924 180 64ft 0kts
04-Jan-18 10:37 33.812775 -118.162924 180 64ft 0kts
04-Jan-18 10:38 33.812775 -118.162924 180 64ft 0kts
04-Jan-18 10:39 33.812775 -118.162924 180 64ft 0kts
04-Jan-18 10:40 33.812775 -118.162924 180 64ft 0kts
04-Jan-18 10:41 33.812775 -118.162924 180 64ft 0kts
04-Jan-18 10:42 33.812775 -118.162924 180 64ft 0kts
04-Jan-18 10:43 33.812775 -118.162924 180 64ft 0kts
04-Jan-18 10:44 33.812775 -118.162924 180 64ft 0kts
04-Jan-18 10:45 33.812775 -118.162924 180 64ft 0kts
04-Jan-18 10:46 33.812775 -118.162924 180 64ft 0kts
04-Jan-18 10:47 33.812775 -118.162924 180 64ft 0kts
04-Jan-18 10:48 33.812775 -118.162924 180 64ft 0kts
04-Jan-18 10:49 33.812775 -118.162924 180 64ft 0kts
04-Jan-18 10:50 33.812775 -118.162924 180 64ft 0kts
04-Jan-18 10:51 33.812773 -118.162924 180 64ft 0kts
04-Jan-18 10:52 33.812772 -118.162924 180 64ft 0kts
04-Jan-18 10:53 33.812771 -118.162924 180 64ft 0kts
04-Jan-18 10:54 33.812770 -118.162924 180 64ft 0kts
04-Jan-18 10:55 33.812769 -118.162924 180 64ft 0kts
04-Jan-18 10:56 33.813053 -118.162471 105 64ft 10kts
04-Jan-18 10:57 33.813015 -118.158427 89 64ft 0kts
04-Jan-18 10:58 33.813015 -118.158425 89 64ft 0kts
04-Jan-18 10:59 33.813015 -118.158422 89 64ft 0kts
04-Jan-18 11:00 33.813020 -118.152896 89 64ft 22kts
04-Jan-18 11:01 33.813022 -118.148740 89 64ft 3kts
04-Jan-18 11:02 33.812546 -118.147329 131 64ft 0kts
04-Jan-18 11:03 33.812544 -118.147326 131 64ft 0kts
04-Jan-18 11:04 33.812871 -118.147754 309 64ft 3kts
04-Jan-18 11:05 33.813140 -118.148036 256 64ft 10kts
04-Jan-18 11:06 33.813026 -118.148597 92 64ft 0kts
04-Jan-18 11:07 33.813026 -118.148596 92 64ft 0kts
04-Jan-18 11:08 33.813026 -118.148594 92 64ft 0kts
04-Jan-18 11:09 33.813026 -118.148589 92 64ft 0kts
04-Jan-18 11:10 33.813026 -118.148587 92 64ft 0kts
04-Jan-18 11:11 33.813488 -118.147961 358 64ft 18kts
04-Jan-18 11:12 33.813956 -118.168941 268 334ft 103kts
04-Jan-18 11:13 33.816332 -118.203458 279 1557ft 91kts
04-Jan-18 11:14 33.820335 -118.232952 268 2178ft 97kts
04-Jan-18 11:15 33.845255 -118.245166 348 3099ft 126kts
04-Jan-18 11:16 33.888107 -118.253441 355 3039ft 182kts
04-Jan-18 11:17 33.937268 -118.259120 335 2994ft 170kts
04-Jan-18 11:18 33.955063 -118.309470 275 3008ft 165kts
04-Jan-18 11:19 33.951954 -118.360185 266 3516ft 141kts
04-Jan-18 11:20 33.940763 -118.403666 247 4054ft 145kts
04-Jan-18 11:21 33.938012 -118.454451 287 4479ft 142kts
04-Jan-18 11:22 33.952866 -118.492332 288 5534ft 125kts
04-Jan-18 11:23 33.964017 -118.535395 288 5994ft 144kts
04-Jan-18 11:24 33.977608 -118.584121 292 5999ft 159kts
04-Jan-18 11:25 33.992511 -118.634799 290 6003ft 157kts
04-Jan-18 11:26 34.007621 -118.683330 290 6003ft 154kts
04-Jan-18 11:27 34.022233 -118.731960 289 6004ft 153kts
04-Jan-18 11:28 34.036474 -118.780653 290 6003ft 155kts
04-Jan-18 11:29 34.052673 -118.828814 293 6019ft 153kts
04-Jan-18 11:30 34.068554 -118.876672 286 6022ft 154kts
04-Jan-18 11:31 34.080044 -118.926594 286 6021ft 154kts
04-Jan-18 11:32 34.092790 -118.976127 287 6018ft 154kts
04-Jan-18 11:33 34.106005 -119.025196 287 6019ft 153kts
04-Jan-18 11:34 34.123140 -119.072208 304 6022ft 155kts
04-Jan-18 11:35 34.145066 -119.116932 298 6018ft 154kts
04-Jan-18 11:36 34.166531 -119.161412 290 6018ft 153kts
04-Jan-18 11:37 34.182514 -119.209839 289 6020ft 160kts
04-Jan-18 11:38 34.202868 -119.261011 294 6017ft 170kts
04-Jan-18 11:39 34.222981 -119.311975 292 6013ft 166kts
04-Jan-18 11:40 34.244043 -119.364339 297 5214ft 178kts
04-Jan-18 11:41 34.268319 -119.416179 297 4325ft 173kts
04-Jan-18 11:42 34.291078 -119.464420 297 4008ft 157kts
04-Jan-18 11:43 34.311503 -119.514427 292 4010ft 170kts
04-Jan-18 11:44 34.329225 -119.567271 283 4006ft 166kts
04-Jan-18 11:45 34.339531 -119.621246 276 4006ft 163kts
04-Jan-18 11:46 34.344181 -119.676119 273 4002ft 163kts
04-Jan-18 11:47 34.348734 -119.730959 272 4001ft 164kts
04-Jan-18 11:48 34.353486 -119.786264 273 4001ft 165kts
04-Jan-18 11:49 34.358280 -119.841514 273 4000ft 165kts
04-Jan-18 11:50 34.363071 -119.896964 273 3999ft 166kts
04-Jan-18 11:51 34.367969 -119.952651 274 4000ft 166kts
04-Jan-18 11:52 34.372834 -120.008252 274 3996ft 166kts
04-Jan-18 11:53 34.377720 -120.064150 273 3990ft 166kts
04-Jan-18 11:54 34.399288 -120.104344 16 3995ft 170kts
04-Jan-18 11:55 34.423657 -120.056209 79 3477ft 174kts
04-Jan-18 11:56 34.424806 -119.995683 93 2357ft 181kts
04-Jan-18 11:57 34.425652 -119.940303 88 1450ft 132kts
04-Jan-18 11:58 34.426511 -119.902317 89 847ft 106kts
04-Jan-18 11:59 34.427277 -119.867031 91 312ft 93kts
04-Jan-18 12:00 34.427699 -119.843497 90 14ft 35kts
04-Jan-18 12:01 34.428349 -119.838012 337 14ft 0kts
04-Jan-18 12:02 34.428351 -119.838013 337 14ft 0kts
04-Jan-18 12:03 34.430751 -119.838882 345 14ft 16kts
04-Jan-18 12:04 34.432157 -119.837050 338 14ft 0kts
04-Jan-18 12:05 34.432159 -119.837051 338 14ft 0kts
04-Jan-18 12:06 34.432159 -119.837051 338 14ft 0kts
04-Jan-18 12:07 34.432159 -119.837051 338 14ft 0kts
04-Jan-18 12:08 34.432159 -119.837051 338 14ft 0kts
04-Jan-18 12:09 34.432159 -119.837051 338 14ft 0kts
04-Jan-18 12:10 34.432159 -119.837051 338 14ft 0kts
04-Jan-18 12:11 34.432159 -119.837051 338 14ft 0kts
04-Jan-18 12:12 34.432159 -119.837051 338 14ft 0kts
04-Jan-18 12:13 34.432159 -119.837051 338 14ft 0kts
04-Jan-18 12:14 34.432159 -119.837051 338 14ft 0kts

Navigation Log

Ident Type
1. KLGB Airport
2. SLI Navaid
3. POPPR Fix
4. HERMO Fix
5. LAX Navaid
6. SADDE Fix
7. VTU Navaid
8. KWANG Fix
9. KSBA Airport